Qm Of London — ZCTD7 — position and weather

sailwx.info

Track history (hours):
 
Tides and Currents Weather Stations Pressure Air Temp Water Temp Dewpoint Dewpoint Depression Visibility Wind Speed Wind Dir Waves Ship Positions

Qm Of London

Last reported at 2014-Sep-30 23:31 UTC. Time now 2014-Oct-01 00:05 UTC.
Position N 43°33' E 010°18'.

Length 50 m; draft 2.6 m.

Type: Pleasure craft. MMSI: 319780000.

Date/timePositionNaut miles runAvg speedWind from/ knotsBaromVisibWave heightAir tempDewpointWater temp
2014-Sep-30 23:31N 43°33' E 010°18'0 0.0
2014-Sep-30 22:32N 43°33' E 010°18'0 0.0
2014-Sep-30 21:33N 43°33' E 010°18'0 0.0
2014-Sep-30 20:30N 43°33' E 010°18'0 0.0
2014-Sep-30 19:31N 43°33' E 010°18'0 0.0
2014-Sep-30 18:32N 43°33' E 010°18'0 0.0
2014-Sep-30 17:32N 43°33' E 010°18'0 0.0
2014-Sep-30 16:33N 43°33' E 010°18'0 0.0
2014-Sep-30 15:31N 43°33' E 010°18'0 0.1
2014-Sep-30 14:33N 43°33' E 010°18'1010.0
2014-Sep-30 13:33N 43°31' E 010°04'1313.0
2014-Sep-30 12:33N 43°32' E 009°46'1313.0
2014-Sep-30 11:33N 43°33' E 009°29'1312.5
2014-Sep-30 10:33N 43°35' E 009°11'1212.3
2014-Sep-30 09:33N 43°36' E 008°55'1212.3
2014-Sep-30 08:33N 43°38' E 008°38'5211.9
2014-Sep-30 04:13N 43°44' E 007°27'1 0.0
2014-Sep-28 15:33N 43°44' E 007°26'3 3.0
2014-Sep-28 14:25N 43°43' E 007°22'0 0.0
2014-Sep-28 13:25N 43°43' E 007°22'0 0.0
2014-Sep-28 12:26N 43°43' E 007°22'0 0.0
2014-Sep-28 11:09N 43°43' E 007°22'0 0.0
2014-Sep-28 10:33N 43°43' E 007°22'0 0.0
2014-Sep-28 09:22N 43°43' E 007°22'0 0.0
2014-Sep-28 08:29N 43°43' E 007°22'4 3.9
2014-Sep-28 07:31N 43°39' E 007°22'1311.8
2014-Sep-28 06:27N 43°27' E 007°21'1310.8
2014-Sep-28 05:12N 43°18' E 007°07'711.5
2014-Sep-28 04:33N 43°18' E 006°56'1211.8
2014-Sep-28 03:33N 43°18' E 006°40'3 0.8
2014-Sep-27 23:17N 43°17' E 006°36'0 0.0
2014-Sep-27 20:22N 43°17' E 006°36'0 0.0
2014-Sep-27 19:17N 43°17' E 006°36'0 0.0
2014-Sep-27 18:17N 43°17' E 006°36'0 0.0
2014-Sep-27 14:32N 43°17' E 006°36'0 0.0
2014-Sep-27 13:32N 43°17' E 006°36'0 0.0
2014-Sep-27 12:33N 43°17' E 006°36'0 0.0
2014-Sep-27 11:28N 43°17' E 006°36'0 0.0
2014-Sep-27 10:25N 43°17' E 006°36'2 1.8
2014-Sep-27 09:33N 43°16' E 006°38'0 0.0
2014-Sep-27 08:25N 43°16' E 006°38'0 0.0
2014-Sep-27 07:32N 43°16' E 006°38'0 0.0
2014-Sep-27 06:32N 43°16' E 006°38'0 0.0
2014-Sep-27 05:33N 43°16' E 006°38'0 0.0
2014-Sep-27 04:34N 43°16' E 006°38'0 0.0
2014-Sep-27 03:25N 43°16' E 006°38'0 0.0
2014-Sep-27 02:32N 43°16' E 006°38'0 0.0
2014-Sep-27 01:33N 43°16' E 006°38'0 0.0
2014-Sep-27 00:33N 43°16' E 006°38'0 0.0
2014-Sep-26 23:25N 43°16' E 006°38'0 0.0
2014-Sep-26 22:26N 43°16' E 006°38'0 0.0
2014-Sep-26 21:32N 43°16' E 006°38'0 0.0
2014-Sep-26 20:33N 43°16' E 006°38'0 0.0
2014-Sep-26 19:28N 43°16' E 006°38'0 0.0
2014-Sep-26 18:31N 43°16' E 006°38'1 0.6
2014-Sep-26 17:32N 43°17' E 006°39'1312.8
2014-Sep-26 16:33N 43°24' E 006°53'1312.9
2014-Sep-26 15:33N 43°31' E 007°08'1313.2
2014-Sep-26 14:33N 43°40' E 007°21'2 1.6
2014-Sep-26 13:17N 43°42' E 007°20'0 0.0
2014-Sep-26 12:30N 43°42' E 007°20'0 0.0
2014-Sep-26 11:30N 43°42' E 007°20'0 0.0
2014-Sep-26 10:31N 43°42' E 007°20'0 0.0
2014-Sep-26 09:26N 43°42' E 007°20'0 0.0
2014-Sep-26 08:32N 43°42' E 007°20'0 0.0
2014-Sep-26 07:33N 43°42' E 007°20'0 0.0
2014-Sep-26 06:10N 43°42' E 007°20'0 0.0
2014-Sep-26 05:22N 43°42' E 007°20'0 0.0
2014-Sep-26 04:23N 43°42' E 007°20'0 0.0
2014-Sep-26 03:30N 43°42' E 007°20'0 0.0
2014-Sep-26 02:30N 43°42' E 007°20'0 0.0
2014-Sep-26 01:31N 43°42' E 007°20'0 0.0
2014-Sep-26 00:26N 43°42' E 007°20'0 0.0
2014-Sep-25 23:32N 43°42' E 007°20'0 0.0
2014-Sep-25 22:33N 43°42' E 007°20'0 0.0
2014-Sep-25 21:28N 43°42' E 007°20'0 0.0
2014-Sep-25 20:28N 43°42' E 007°20'0 0.0
2014-Sep-25 19:23N 43°42' E 007°20'0 0.0
2014-Sep-25 18:24N 43°42' E 007°20'0 0.0
2014-Sep-25 17:18N 43°42' E 007°20'0 0.0
2014-Sep-25 16:25N 43°42' E 007°20'0 0.0
2014-Sep-25 15:32N 43°42' E 007°20'0 0.0
2014-Sep-25 14:14N 43°42' E 007°20'0 0.0
2014-Sep-25 13:33N 43°42' E 007°20'0 0.0
2014-Sep-25 11:11N 43°42' E 007°20'0 0.0
2014-Sep-25 10:29N 43°42' E 007°20'0 0.0
2014-Sep-25 09:30N 43°42' E 007°20'0 0.0
2014-Sep-25 08:07N 43°42' E 007°20'0 0.0
2014-Sep-25 07:31N 43°42' E 007°20'0 0.1
2014-Sep-25 06:33N 43°42' E 007°20'  
Track history (hours):
 
Tides and Currents Weather Stations Pressure Air Temp Water Temp Dewpoint Dewpoint Depression Visibility Wind Speed Wind Dir Waves Ship Positions

Qm Of London

Last reported at 2014-Sep-30 23:31 UTC. Time now 2014-Oct-01 00:05 UTC.
Position N 43°33' E 010°18'.

Length 50 m; draft 2.6 m.

Type: Pleasure craft. MMSI: 319780000.

Date/timePositionNaut miles runAvg speedWind from/ knotsBaromVisibWave heightAir tempDewpointWater temp
2014-Sep-30 23:31N 43°33' E 010°18'0 0.0
2014-Sep-30 22:32N 43°33' E 010°18'0 0.0
2014-Sep-30 21:33N 43°33' E 010°18'0 0.0
2014-Sep-30 20:30N 43°33' E 010°18'0 0.0
2014-Sep-30 19:31N 43°33' E 010°18'0 0.0
2014-Sep-30 18:32N 43°33' E 010°18'0 0.0
2014-Sep-30 17:32N 43°33' E 010°18'0 0.0
2014-Sep-30 16:33N 43°33' E 010°18'0 0.0
2014-Sep-30 15:31N 43°33' E 010°18'0 0.1
2014-Sep-30 14:33N 43°33' E 010°18'1010.0
2014-Sep-30 13:33N 43°31' E 010°04'1313.0
2014-Sep-30 12:33N 43°32' E 009°46'1313.0
2014-Sep-30 11:33N 43°33' E 009°29'1312.5
2014-Sep-30 10:33N 43°35' E 009°11'1212.3
2014-Sep-30 09:33N 43°36' E 008°55'1212.3
2014-Sep-30 08:33N 43°38' E 008°38'5211.9
2014-Sep-30 04:13N 43°44' E 007°27'1 0.0
2014-Sep-28 15:33N 43°44' E 007°26'3 3.0
2014-Sep-28 14:25N 43°43' E 007°22'0 0.0
2014-Sep-28 13:25N 43°43' E 007°22'0 0.0
2014-Sep-28 12:26N 43°43' E 007°22'0 0.0
2014-Sep-28 11:09N 43°43' E 007°22'0 0.0
2014-Sep-28 10:33N 43°43' E 007°22'0 0.0
2014-Sep-28 09:22N 43°43' E 007°22'0 0.0
2014-Sep-28 08:29N 43°43' E 007°22'4 3.9
2014-Sep-28 07:31N 43°39' E 007°22'1311.8
2014-Sep-28 06:27N 43°27' E 007°21'1310.8
2014-Sep-28 05:12N 43°18' E 007°07'711.5
2014-Sep-28 04:33N 43°18' E 006°56'1211.8
2014-Sep-28 03:33N 43°18' E 006°40'3 0.8
2014-Sep-27 23:17N 43°17' E 006°36'0 0.0
2014-Sep-27 20:22N 43°17' E 006°36'0 0.0
2014-Sep-27 19:17N 43°17' E 006°36'0 0.0
2014-Sep-27 18:17N 43°17' E 006°36'0 0.0
2014-Sep-27 14:32N 43°17' E 006°36'0 0.0
2014-Sep-27 13:32N 43°17' E 006°36'0 0.0
2014-Sep-27 12:33N 43°17' E 006°36'0 0.0
2014-Sep-27 11:28N 43°17' E 006°36'0 0.0
2014-Sep-27 10:25N 43°17' E 006°36'2 1.8
2014-Sep-27 09:33N 43°16' E 006°38'0 0.0
2014-Sep-27 08:25N 43°16' E 006°38'0 0.0
2014-Sep-27 07:32N 43°16' E 006°38'0 0.0
2014-Sep-27 06:32N 43°16' E 006°38'0 0.0
2014-Sep-27 05:33N 43°16' E 006°38'0 0.0
2014-Sep-27 04:34N 43°16' E 006°38'0 0.0
2014-Sep-27 03:25N 43°16' E 006°38'0 0.0
2014-Sep-27 02:32N 43°16' E 006°38'0 0.0
2014-Sep-27 01:33N 43°16' E 006°38'0 0.0
2014-Sep-27 00:33N 43°16' E 006°38'0 0.0
2014-Sep-26 23:25N 43°16' E 006°38'0 0.0
2014-Sep-26 22:26N 43°16' E 006°38'0 0.0
2014-Sep-26 21:32N 43°16' E 006°38'0 0.0
2014-Sep-26 20:33N 43°16' E 006°38'0 0.0
2014-Sep-26 19:28N 43°16' E 006°38'0 0.0
2014-Sep-26 18:31N 43°16' E 006°38'1 0.6
2014-Sep-26 17:32N 43°17' E 006°39'1312.8
2014-Sep-26 16:33N 43°24' E 006°53'1312.9
2014-Sep-26 15:33N 43°31' E 007°08'1313.2
2014-Sep-26 14:33N 43°40' E 007°21'2 1.6
2014-Sep-26 13:17N 43°42' E 007°20'0 0.0
2014-Sep-26 12:30N 43°42' E 007°20'0 0.0
2014-Sep-26 11:30N 43°42' E 007°20'0 0.0
2014-Sep-26 10:31N 43°42' E 007°20'0 0.0
2014-Sep-26 09:26N 43°42' E 007°20'0 0.0
2014-Sep-26 08:32N 43°42' E 007°20'0 0.0
2014-Sep-26 07:33N 43°42' E 007°20'0 0.0
2014-Sep-26 06:10N 43°42' E 007°20'0 0.0
2014-Sep-26 05:22N 43°42' E 007°20'0 0.0
2014-Sep-26 04:23N 43°42' E 007°20'0 0.0
2014-Sep-26 03:30N 43°42' E 007°20'0 0.0
2014-Sep-26 02:30N 43°42' E 007°20'0 0.0
2014-Sep-26 01:31N 43°42' E 007°20'0 0.0
2014-Sep-26 00:26N 43°42' E 007°20'0 0.0
2014-Sep-25 23:32N 43°42' E 007°20'0 0.0
2014-Sep-25 22:33N 43°42' E 007°20'0 0.0
2014-Sep-25 21:28N 43°42' E 007°20'0 0.0
2014-Sep-25 20:28N 43°42' E 007°20'0 0.0
2014-Sep-25 19:23N 43°42' E 007°20'0 0.0
2014-Sep-25 18:24N 43°42' E 007°20'0 0.0
2014-Sep-25 17:18N 43°42' E 007°20'0 0.0
2014-Sep-25 16:25N 43°42' E 007°20'0 0.0
2014-Sep-25 15:32N 43°42' E 007°20'0 0.0
2014-Sep-25 14:14N 43°42' E 007°20'0 0.0
2014-Sep-25 13:33N 43°42' E 007°20'0 0.0
2014-Sep-25 11:11N 43°42' E 007°20'0 0.0
2014-Sep-25 10:29N 43°42' E 007°20'0 0.0
2014-Sep-25 09:30N 43°42' E 007°20'0 0.0
2014-Sep-25 08:07N 43°42' E 007°20'0 0.0
2014-Sep-25 07:31N 43°42' E 007°20'0 0.1
2014-Sep-25 06:33N 43°42' E 007°20'  

Dump ship's entire track history